Time;durP1;ratioP1;P1;durP2;ratioP2;P2;SDS_P1;SDS_P2;PMS_P1;PMS_P2;Temp;Humidity;BMP_temperature;BMP_pressure;BME280_temperature;BME280_humidity;BME280_pressure;Samples;Min_cycle;Max_cycle;Signal;HPM_P1;HPM_P2
2021/09/14 00:01:29;;;;;;;26.97;15.78;;;;;;;17.68;56.45;101171.38;1824255;78;20947;-82
2021/09/14 00:03:56;;;;;;;23.70;15.15;;;;;;;17.67;56.42;101171.05;1824446;78;20914;-84
2021/09/14 00:06:23;;;;;;;29.72;14.78;;;;;;;17.62;56.02;101167.50;1824439;78;21028;-84
2021/09/14 00:08:50;;;;;;;29.42;13.95;;;;;;;17.56;55.76;101177.22;1822059;78;21072;-86
2021/09/14 00:11:17;;;;;;;26.95;13.15;;;;;;;17.53;55.66;101168.75;1820554;78;21001;-84
2021/09/14 00:13:46;;;;;;;31.77;14.23;;;;;;;17.48;55.64;101172.59;1820385;78;22280;-85
2021/09/14 00:16:16;;;;;;;27.73;13.98;;;;;;;17.48;55.71;101177.52;1820450;78;20954;-83
2021/09/14 00:18:45;;;;;;;26.80;14.25;;;;;;;17.44;55.69;101173.02;1820861;78;20894;-83
2021/09/14 00:21:13;;;;;;;25.90;14.15;;;;;;;17.41;55.71;101176.73;1820355;78;21145;-82
2021/09/14 00:23:40;;;;;;;25.25;14.00;;;;;;;17.40;55.77;101176.86;1820599;78;20914;-82
2021/09/14 00:26:07;;;;;;;30.70;14.35;;;;;;;17.38;55.65;101173.07;1820512;78;21033;-81
2021/09/14 00:28:35;;;;;;;23.35;14.80;;;;;;;17.37;55.61;101178.44;1820553;78;20918;-86
2021/09/14 00:31:03;;;;;;;29.72;13.83;;;;;;;17.33;55.71;101177.86;1820727;78;20898;-83
2021/09/14 00:33:30;;;;;;;24.65;13.32;;;;;;;17.30;55.75;101175.98;1820562;78;21074;-83
2021/09/14 00:35:58;;;;;;;30.70;13.83;;;;;;;17.26;55.88;101171.98;1820367;78;20954;-81
2021/09/14 00:38:25;;;;;;;26.68;13.43;;;;;;;17.23;55.98;101167.00;1820482;78;20887;-83
2021/09/14 00:40:53;;;;;;;25.92;13.08;;;;;;;17.24;56.04;101167.33;1820493;78;20898;-83
2021/09/14 00:43:22;;;;;;;31.90;14.47;;;;;;;17.23;56.10;101169.12;1820206;78;20962;-85
2021/09/14 00:45:50;;;;;;;27.13;13.55;;;;;;;17.24;56.30;101169.48;1820550;78;21090;-86
2021/09/14 00:48:18;;;;;;;29.95;15.43;;;;;;;17.24;56.35;101171.27;1820732;78;20914;-87
2021/09/14 00:50:46;;;;;;;30.80;16.40;;;;;;;17.23;56.36;101178.30;1820625;78;20930;-85
2021/09/14 00:53:22;;;;;;;34.83;16.15;;;;;;;17.19;56.34;101179.55;1821008;78;20875;-90
2021/09/14 00:55:50;;;;;;;29.27;14.98;;;;;;;17.11;56.49;101178.04;1820524;78;21054;-88
2021/09/14 00:58:19;;;;;;;28.20;14.25;;;;;;;17.06;56.77;101180.71;1820696;78;21056;-82
2021/09/14 01:00:46;;;;;;;32.50;15.58;;;;;;;17.00;56.94;101182.07;1820901;78;20989;-88
2021/09/14 01:03:13;;;;;;;32.20;15.28;;;;;;;16.97;57.16;101182.80;1820514;78;20911;-84
2021/09/14 01:05:41;;;;;;;26.68;18.00;;;;;;;16.94;57.31;101186.02;1791125;78;20965;-83
2021/09/14 01:08:08;;;;;;;25.55;17.32;;;;;;;16.93;57.50;101189.62;1819092;78;21005;-82
2021/09/14 01:10:36;;;;;;;25.80;16.20;;;;;;;16.95;57.61;101193.41;1813003;79;21771;-86
2021/09/14 01:13:06;;;;;;;24.98;14.83;;;;;;;16.96;57.68;101182.45;1788355;79;21394;-88
2021/09/14 01:15:34;;;;;;;28.20;15.13;;;;;;;16.97;57.77;101186.73;1813040;79;21001;-82
2021/09/14 01:18:03;;;;;;;26.80;15.32;;;;;;;16.96;57.81;101183.75;1813103;79;20927;-83
2021/09/14 01:20:31;;;;;;;27.20;15.75;;;;;;;16.97;57.92;101177.56;1812930;79;21085;-84
2021/09/14 01:23:00;;;;;;;33.20;16.55;;;;;;;16.98;57.98;101180.03;1813058;79;20931;-86
2021/09/14 01:25:29;;;;;;;22.30;17.12;;;;;;;16.99;58.05;101185.64;1813139;79;20911;-86
2021/09/14 01:28:06;;;;;;;31.85;17.35;;;;;;;17.00;58.09;101189.09;1813250;79;21527;-85
2021/09/14 01:30:35;;;;;;;28.75;15.90;;;;;;;17.01;58.07;101190.27;1794840;80;20925;-86
2021/09/14 01:33:04;;;;;;;29.30;15.28;;;;;;;17.01;58.11;101193.39;1794395;80;20913;-83
2021/09/14 01:35:38;;;;;;;26.97;14.47;;;;;;;16.98;58.10;101194.45;1762875;81;21122;-83
2021/09/14 01:38:08;;;;;;;27.05;14.15;;;;;;;16.99;58.56;101193.51;1762727;81;21516;-83
2021/09/14 01:40:37;;;;;;;24.87;13.95;;;;;;;17.02;58.57;101193.72;1762839;81;20866;-86
2021/09/14 01:43:08;;;;;;;20.85;13.28;;;;;;;17.03;58.54;101188.84;1762979;81;20985;-87
2021/09/14 01:45:35;;;;;;;22.30;14.25;;;;;;;17.05;58.69;101183.81;1762870;81;20973;-86
2021/09/14 01:48:05;;;;;;;28.23;13.20;;;;;;;17.09;58.73;101186.53;1762842;81;21132;-84
2021/09/14 01:50:33;;;;;;;23.02;13.95;;;;;;;17.12;58.76;101186.74;1762649;81;20894;-86
2021/09/14 01:53:01;;;;;;;20.52;13.68;;;;;;;17.10;58.72;101190.82;1762837;81;20926;-83
2021/09/14 01:55:32;;;;;;;21.53;13.57;;;;;;;17.09;58.76;101192.25;1762921;81;20988;-83
2021/09/14 01:58:00;;;;;;;21.95;13.65;;;;;;;17.09;58.76;101189.63;1762672;81;20993;-83
2021/09/14 02:00:32;;;;;;;26.45;14.30;;;;;;;17.10;59.01;101189.98;1737220;81;21140;-87
2021/09/14 02:06:07;;;;;;;26.60;15.68;;;;;;;17.10;58.95;101195.23;1783528;79;21009;-83
2021/09/14 02:41:09;;;;;;;26.97;14.20;;;;;;;16.62;60.57;101199.69;1820699;78;21076;-83
2021/09/14 02:59:36;;;;;;;27.85;14.68;;;;;;;16.47;61.80;101214.47;1820708;78;21489;-86
2021/09/14 03:02:04;;;;;;;24.07;14.73;;;;;;;16.44;61.94;101211.62;1789098;78;20883;-82
2021/09/14 03:04:33;;;;;;;35.75;15.08;;;;;;;16.43;62.08;101210.47;1820359;78;20919;-82
2021/09/14 03:07:02;;;;;;;22.70;13.72;;;;;;;16.40;62.19;101214.14;1820536;78;20954;-84
2021/09/14 03:09:32;;;;;;;26.85;14.38;;;;;;;16.39;62.26;101222.50;1820298;77;20942;-83
2021/09/14 03:12:01;;;;;;;21.30;13.30;;;;;;;16.41;62.34;101219.73;1820681;78;20958;-80
2021/09/14 03:14:29;;;;;;;27.25;14.80;;;;;;;16.40;62.59;101224.14;1820537;78;20910;-86
2021/09/14 03:17:00;;;;;;;25.37;14.35;;;;;;;16.37;62.77;101223.56;1821317;78;20909;-85
2021/09/14 03:19:29;;;;;;;26.60;14.13;;;;;;;16.34;62.84;101222.03;1820496;78;21092;-82
2021/09/14 03:22:01;;;;;;;21.93;14.05;;;;;;;16.33;62.87;101226.09;1820474;78;20914;-84
2021/09/14 03:24:32;;;;;;;23.60;13.62;;;;;;;16.32;62.95;101227.88;1820406;78;20973;-82
2021/09/14 03:27:01;;;;;;;23.02;14.93;;;;;;;16.33;63.01;101228.72;1820673;78;21476;-81
2021/09/14 03:29:28;;;;;;;28.98;15.00;;;;;;;16.34;63.02;101232.50;1820598;78;20977;-84
2021/09/14 03:31:55;;;;;;;28.60;15.40;;;;;;;16.33;63.23;101237.88;1820494;78;21036;-85
2021/09/14 03:34:22;;;;;;;29.57;15.68;;;;;;;16.28;63.47;101236.93;1820670;78;20827;-80
2021/09/14 03:36:52;;;;;;;24.87;15.13;;;;;;;16.26;63.86;101245.40;1820571;78;20950;-84
2021/09/14 03:39:19;;;;;;;21.93;14.87;;;;;;;16.25;64.27;101243.73;1820347;78;20918;-83
2021/09/14 03:41:47;;;;;;;23.25;14.60;;;;;;;16.25;64.49;101237.18;1820480;78;20915;-83
2021/09/14 03:44:16;;;;;;;29.65;15.58;;;;;;;16.28;64.50;101251.34;1820449;78;21098;-82
2021/09/14 03:46:43;;;;;;;27.40;15.35;;;;;;;16.33;64.66;101254.44;1820414;78;21029;-83
2021/09/14 03:49:11;;;;;;;23.87;15.80;;;;;;;16.39;64.48;101255.72;1820164;78;20915;-82
2021/09/14 03:51:40;;;;;;;25.25;15.15;;;;;;;16.39;64.32;101253.94;1820596;78;20970;-84
2021/09/14 03:54:08;;;;;;;23.38;14.58;;;;;;;16.40;64.37;101269.98;1820478;78;20851;-81
2021/09/14 03:56:36;;;;;;;26.35;14.78;;;;;;;16.36;64.41;101272.52;1820496;78;21115;-82
2021/09/14 03:59:05;;;;;;;21.82;14.45;;;;;;;16.26;64.57;101274.21;1819869;78;21005;-82
2021/09/14 04:01:36;;;;;;;24.65;15.60;;;;;;;16.18;64.77;101279.68;1820406;78;20965;-84
2021/09/14 04:04:27;;;;;;;26.27;15.75;;;;;;;16.11;65.00;101280.67;1820612;78;20915;-82
2021/09/14 04:09:18;;;;;;;25.95;15.35;;;;;;;16.09;65.48;101282.56;1824099;78;21957;-83
2021/09/14 04:11:55;;;;;;;28.00;15.00;;;;;;;16.05;65.61;101279.82;1835755;78;20993;-89
2021/09/14 04:14:29;;;;;;;24.10;14.47;;;;;;;16.03;65.96;101276.98;1835699;78;21472;-90
2021/09/14 04:17:00;;;;;;;18.55;13.68;;;;;;;16.05;66.23;101281.64;1835794;78;20950;-85
2021/09/14 04:19:28;;;;;;;25.52;14.03;;;;;;;16.06;66.73;101281.50;1836330;78;21000;-87
2021/09/14 04:21:56;;;;;;;25.32;14.15;;;;;;;16.04;66.76;101286.03;1835607;78;21047;-89
2021/09/14 04:24:25;;;;;;;28.55;15.18;;;;;;;16.00;67.01;101293.77;1835563;78;21469;-87
2021/09/14 04:26:53;;;;;;;31.12;15.58;;;;;;;15.95;67.29;101288.07;1835729;78;20875;-86
2021/09/14 04:29:21;;;;;;;24.77;15.15;;;;;;;15.91;67.50;101296.27;1835987;78;20941;-89
2021/09/14 04:31:49;;;;;;;23.45;16.15;;;;;;;15.87;67.79;101289.97;1836587;78;20874;-83
2021/09/14 04:34:16;;;;;;;24.12;15.60;;;;;;;15.86;68.29;101292.69;1835957;78;21090;-83
2021/09/14 04:36:46;;;;;;;32.63;15.50;;;;;;;15.85;68.58;101298.42;1836228;78;20846;-87
2021/09/14 04:39:15;;;;;;;31.97;15.78;;;;;;;15.86;68.95;101297.45;1835984;78;20922;-88
2021/09/14 04:41:44;;;;;;;30.62;16.73;;;;;;;15.92;69.37;101303.18;1836355;78;20858;-90
2021/09/14 04:44:13;;;;;;;27.80;15.45;;;;;;;15.94;69.48;101306.03;1836566;78;20957;-91
2021/09/14 04:46:41;;;;;;;26.73;16.12;;;;;;;15.96;69.63;101309.34;1836494;78;21102;-87
2021/09/14 04:49:11;;;;;;;31.40;15.98;;;;;;;15.98;69.84;101307.94;1836268;78;20969;-93
2021/09/14 04:51:40;;;;;;;32.70;16.10;;;;;;;16.02;69.90;101308.86;1835987;78;20890;-87
2021/09/14 04:54:08;;;;;;;37.42;16.67;;;;;;;16.05;70.07;101307.81;1836045;78;21029;-84
2021/09/14 04:56:36;;;;;;;31.77;16.95;;;;;;;16.08;70.23;101300.52;1836416;78;20926;-85
2021/09/14 04:59:04;;;;;;;36.23;16.30;;;;;;;16.14;70.61;101295.30;1836016;78;21095;-82
2021/09/14 05:01:31;;;;;;;37.33;17.27;;;;;;;16.23;70.68;101297.19;1835733;78;20953;-87
2021/09/14 05:04:00;;;;;;;36.60;17.98;;;;;;;16.32;71.36;101301.22;1836263;76;20966;-89
2021/09/14 05:06:30;;;;;;;37.35;17.92;;;;;;;16.40;71.51;101296.66;1835767;78;20949;-90
2021/09/14 05:08:59;;;;;;;28.90;19.15;;;;;;;16.48;71.75;101295.58;1836391;78;20941;-86
2021/09/14 05:11:27;;;;;;;36.23;18.45;;;;;;;16.58;72.52;101299.16;1795630;77;21070;-84
2021/09/14 05:13:55;;;;;;;37.38;18.98;;;;;;;16.68;72.60;101300.08;1824116;78;20929;-82
2021/09/14 05:16:26;;;;;;;54.90;20.37;;;;;;;16.78;72.52;101302.28;1822973;77;21574;-84
2021/09/14 05:19:11;;;;;;;36.48;20.15;;;;;;;16.88;72.57;101303.19;1821228;77;20945;-84
2021/09/14 05:21:58;;;;;;;52.15;19.73;;;;;;;17.00;72.47;101304.47;1823896;77;20862;-86
2021/09/14 05:24:21;;;;;;;43.05;20.57;;;;;;;17.09;72.47;101309.78;1785740;79;21788;-85
2021/09/14 05:26:53;;;;;;;43.73;20.65;;;;;;;17.20;72.24;101314.95;1777532;80;21586;-86
2021/09/14 05:29:21;;;;;;;43.25;23.22;;;;;;;17.29;72.32;101318.11;1777915;78;21623;-83
2021/09/14 05:31:48;;;;;;;43.73;20.97;;;;;;;17.41;72.32;101318.90;1776263;79;21033;-84
2021/09/14 05:34:24;;;;;;;39.30;21.82;;;;;;;17.54;72.24;101320.00;1776566;79;20958;-89
2021/09/14 05:36:53;;;;;;;36.73;20.72;;;;;;;17.64;72.16;101321.77;1777167;79;21112;-81
2021/09/14 05:39:23;;;;;;;40.50;21.55;;;;;;;17.85;74.48;101326.95;1777119;79;21465;-89
2021/09/14 05:41:52;;;;;;;34.60;21.00;;;;;;;18.10;75.66;101327.81;1777451;79;21465;-85
2021/09/14 05:44:20;;;;;;;30.27;20.75;;;;;;;18.35;75.81;101319.44;1777118;79;21016;-84
2021/09/14 05:46:49;;;;;;;29.27;21.20;;;;;;;18.57;75.42;101327.59;1776946;79;21536;-85
2021/09/14 05:49:16;;;;;;;37.63;21.55;;;;;;;18.75;74.84;101321.20;1776973;79;21094;-84
2021/09/14 05:51:46;;;;;;;29.92;19.77;;;;;;;18.90;74.72;101320.64;1777252;79;21426;-88
2021/09/14 05:54:16;;;;;;;34.48;21.20;;;;;;;19.06;74.38;101323.19;1777046;79;20968;-91
2021/09/14 05:56:46;;;;;;;32.70;20.15;;;;;;;19.18;73.97;101327.33;1777148;80;20910;-86
2021/09/14 05:59:18;;;;;;;30.55;20.12;;;;;;;19.30;73.76;101318.33;1781580;79;21169;-89
2021/09/14 06:01:46;;;;;;;32.63;21.80;;;;;;;19.42;73.54;101326.44;1788487;79;21103;-83
2021/09/14 06:04:18;;;;;;;27.65;20.20;;;;;;;19.57;73.34;101329.44;1790720;79;21052;-84
2021/09/14 06:06:50;;;;;;;33.10;18.55;;;;;;;19.66;73.22;101330.72;1777158;79;21418;-82
2021/09/14 06:09:25;;;;;;;27.90;18.87;;;;;;;19.79;72.95;101336.50;1777377;79;20972;-87
2021/09/14 06:11:53;;;;;;;27.52;17.82;;;;;;;19.95;72.56;101328.81;1786166;80;21517;-88
2021/09/14 06:14:25;;;;;;;35.20;20.35;;;;;;;20.06;71.81;101331.28;1786433;80;21098;-86
2021/09/14 06:16:56;;;;;;;31.20;18.37;;;;;;;20.18;71.32;101331.06;1786486;80;20945;-87
2021/09/14 06:19:27;;;;;;;;;;;;;;;20.26;71.18;101325.42;1788520;80;20931;-85
2021/09/14 06:22:01;;;;;;;26.00;16.82;;;;;;;20.37;70.70;101327.87;1798158;79;20075;-84
2021/09/14 06:24:29;;;;;;;33.40;18.67;;;;;;;20.45;70.67;101329.26;1811119;78;20981;-83
2021/09/14 06:26:59;;;;;;;25.62;18.25;;;;;;;20.55;70.50;101327.88;1770379;80;21096;-83
2021/09/14 06:29:30;;;;;;;34.25;17.87;;;;;;;20.63;70.29;101325.34;1827003;77;20949;-85
2021/09/14 06:32:23;;;;;;;;;;;;;;;;;;;;;
2021/09/14 06:34:48;;;;;;;33.83;17.67;;;;;;;20.82;69.36;101327.00;1792761;78;21001;-82
2021/09/14 06:37:17;;;;;;;24.43;17.77;;;;;;;20.95;68.90;101331.41;1810879;78;20985;-81
2021/09/14 06:39:46;;;;;;;26.93;17.25;;;;;;;21.02;68.74;101337.25;1792899;78;21796;-84
2021/09/14 06:42:19;;;;;;;24.52;18.35;;;;;;;21.10;68.39;101334.70;1792468;78;21073;-84
2021/09/14 06:44:49;;;;;;;26.35;17.60;;;;;;;21.18;68.29;101334.44;1765427;80;20929;-83
2021/09/14 06:47:17;;;;;;;28.32;17.70;;;;;;;21.25;68.16;101336.80;1777122;78;20996;-81
2021/09/14 06:49:46;;;;;;;27.73;17.40;;;;;;;21.33;67.76;101338.17;1785669;78;20950;-81
2021/09/14 06:52:30;;;;;;;45.73;18.23;;;;;;;21.40;67.39;101342.69;1792390;80;21274;-87
2021/09/14 06:55:01;;;;;;;33.78;16.40;;;;;;;21.50;67.12;101346.06;1788998;78;20960;-82
2021/09/14 06:57:28;;;;;;;29.87;17.25;;;;;;;21.62;66.76;101350.09;1792324;78;21060;-84
2021/09/14 06:59:55;;;;;;;31.95;17.62;;;;;;;21.72;66.49;101343.39;1761175;80;21060;-83
2021/09/14 07:02:24;;;;;;;39.05;18.37;;;;;;;21.83;66.35;101350.19;1792718;80;21111;-81
2021/09/14 07:04:53;;;;;;;39.00;17.62;;;;;;;21.92;66.03;101342.70;1761240;81;21725;-81
2021/09/14 07:07:21;;;;;;;29.48;16.97;;;;;;;22.01;66.06;101345.22;1795312;78;21115;-82
2021/09/14 07:09:47;;;;;;;21.80;15.28;;;;;;;22.11;65.56;101343.26;1791528;77;21047;-82
2021/09/14 07:12:19;;;;;;;29.45;16.35;;;;;;;22.20;65.28;101340.66;1799974;77;21095;-82
2021/09/14 07:14:48;;;;;;;33.20;18.30;;;;;;;22.28;64.98;101339.35;1780028;78;21040;-81
2021/09/14 07:17:18;;;;;;;26.87;16.77;;;;;;;22.37;64.86;101343.18;1834600;76;20996;-82
2021/09/14 07:19:51;;;;;;;30.37;16.62;;;;;;;22.45;64.22;101341.06;1818121;77;20981;-84
2021/09/14 07:22:20;;;;;;;21.42;15.40;;;;;;;22.53;63.83;101341.91;1851897;77;21045;-82
2021/09/14 07:24:47;;;;;;;23.02;16.00;;;;;;;22.61;63.15;101341.94;1851968;77;21126;-83
2021/09/14 07:27:20;;;;;;;31.62;15.90;;;;;;;22.70;63.00;101346.77;1847439;76;21573;-84
2021/09/14 07:29:51;;;;;;;23.18;16.00;;;;;;;22.76;62.69;101336.85;1814706;77;21866;-87
2021/09/14 07:32:22;;;;;;;19.57;14.98;;;;;;;22.85;62.05;101341.16;1780907;79;21376;-80
2021/09/14 07:34:50;;;;;;;20.82;16.32;;;;;;;22.94;61.83;101344.66;1794972;79;21076;-84
2021/09/14 07:37:20;;;;;;;26.37;16.10;;;;;;;23.03;61.75;101344.50;1795935;79;21028;-82
2021/09/14 07:39:47;;;;;;;25.92;15.85;;;;;;;23.12;61.57;101342.67;1850110;77;21010;-82
2021/09/14 07:42:15;;;;;;;27.00;16.05;;;;;;;23.21;61.29;101344.31;1849417;77;21528;-85
2021/09/14 07:44:54;;;;;;;22.75;15.88;;;;;;;23.29;60.89;101347.47;1833630;76;21093;-85
2021/09/14 07:47:30;;;;;;;26.02;14.75;;;;;;;23.38;60.29;101345.14;1832056;77;21016;-87
2021/09/14 07:50:08;;;;;;;19.10;14.50;;;;;;;23.46;59.83;101342.49;1846652;76;22586;-88
2021/09/14 07:52:39;;;;;;;20.55;15.70;;;;;;;23.57;59.24;101350.10;1820607;78;20875;-81
2021/09/14 07:55:09;;;;;;;25.08;16.25;;;;;;;23.62;58.24;101343.30;1820962;77;22898;-84
2021/09/14 07:57:42;;;;;;;23.40;15.72;;;;;;;23.70;58.20;101351.73;1824350;77;20970;-86
2021/09/14 08:00:14;;;;;;;24.60;14.63;;;;;;;23.77;57.86;101355.37;1853619;76;21303;-84
2021/09/14 08:02:41;;;;;;;23.45;15.90;;;;;;;23.81;57.52;101348.70;1851113;77;23165;-82
2021/09/14 08:05:14;;;;;;;24.07;15.95;;;;;;;23.87;57.54;101352.52;1852628;77;21026;-87
2021/09/14 08:07:44;;;;;;;21.35;15.58;;;;;;;23.96;57.62;101344.87;1851667;77;21087;-80
2021/09/14 08:10:13;;;;;;;26.50;15.30;;;;;;;24.05;57.61;101346.48;1826156;77;21140;-81
2021/09/14 08:12:42;;;;;;;19.95;15.28;;;;;;;24.13;57.28;101338.51;1828962;77;21549;-85
2021/09/14 08:15:15;;;;;;;22.37;15.88;;;;;;;24.21;57.23;101335.84;1824048;77;21088;-85
2021/09/14 08:17:46;;;;;;;26.17;16.65;;;;;;;24.31;56.81;101335.63;1814395;79;21053;-81
2021/09/14 08:20:15;;;;;;;24.60;16.02;;;;;;;24.38;56.41;101341.36;1814672;79;21111;-80
2021/09/14 08:22:42;;;;;;;26.17;14.13;;;;;;;24.47;56.46;101332.38;1788419;79;21120;-86
2021/09/14 08:25:13;;;;;;;20.23;16.67;;;;;;;24.58;56.40;101333.30;1829969;77;20999;-84
2021/09/14 08:27:46;;;;;;;22.07;15.37;;;;;;;24.72;56.03;101334.38;1814830;79;21089;-84
2021/09/14 08:30:16;;;;;;;24.02;16.20;;;;;;;24.84;55.66;101334.80;1789167;79;21032;-82
2021/09/14 08:32:46;;;;;;;27.00;15.18;;;;;;;24.93;55.35;101331.91;1814258;79;21280;-89
2021/09/14 08:35:14;;;;;;;20.32;15.55;;;;;;;25.00;54.92;101332.85;1788726;79;20949;-83
2021/09/14 08:37:43;;;;;;;18.55;12.68;;;;;;;25.10;54.07;101332.11;1795072;78;21036;-81
2021/09/14 08:40:15;;;;;;;23.67;14.83;;;;;;;25.16;52.82;101325.25;1814482;79;21390;-83
2021/09/14 08:42:43;;;;;;;28.62;16.95;;;;;;;25.23;52.95;101324.85;1764230;80;21048;-86
2021/09/14 08:45:18;;;;;;;21.05;14.00;;;;;;;25.32;52.94;101322.94;1796123;78;21108;-86
2021/09/14 08:47:48;;;;;;;20.77;14.10;;;;;;;25.39;52.78;101322.05;1814745;79;21108;-87
2021/09/14 08:50:18;;;;;;;17.10;13.00;;;;;;;25.50;52.46;101320.28;1796053;79;21535;-81
2021/09/14 08:52:45;;;;;;;18.20;14.33;;;;;;;25.59;52.15;101317.86;1815300;79;21009;-84
2021/09/14 08:55:21;;;;;;;23.57;13.88;;;;;;;25.65;51.62;101316.32;1762950;80;21000;-86
2021/09/14 08:57:50;;;;;;;20.32;12.80;;;;;;;25.71;51.65;101315.09;1809822;79;21329;-86
2021/09/14 09:00:35;;;;;;;16.20;11.90;;;;;;;25.78;51.01;101312.52;1796328;78;21554;-81
2021/09/14 09:03:02;;;;;;;20.80;11.57;;;;;;;25.86;49.63;101309.75;1815542;78;21033;-82
2021/09/14 09:05:40;;;;;;;20.75;13.45;;;;;;;25.95;50.09;101316.61;1797275;78;21108;-84
2021/09/14 09:08:23;;;;;;;18.65;12.53;;;;;;;26.09;50.28;101300.31;1816153;79;20999;-85
2021/09/14 09:11:11;;;;;;;19.65;12.58;;;;;;;26.28;50.08;101307.73;1798893;79;21875;-80
2021/09/14 09:13:48;;;;;;;17.65;11.75;;;;;;;26.47;49.91;101301.80;1825799;78;20978;-83
2021/09/14 09:16:25;;;;;;;14.70;11.88;;;;;;;26.69;48.90;101295.47;1825839;78;21068;-79
2021/09/14 09:19:05;;;;;;;13.10;11.50;;;;;;;26.88;47.44;101301.18;1826190;78;20978;-80
2021/09/14 09:21:37;;;;;;;12.68;11.03;;;;;;;26.92;46.79;101297.13;1826268;78;20887;-84
2021/09/14 09:24:12;;;;;;;15.23;11.25;;;;;;;26.94;46.32;101292.42;1826137;77;21983;-82
2021/09/14 09:26:50;;;;;;;19.40;12.18;;;;;;;27.06;46.36;101290.37;1828192;77;21036;-83
2021/09/14 09:29:24;;;;;;;12.68;10.40;;;;;;;27.19;45.88;101294.47;1829982;77;21029;-82
2021/09/14 09:31:53;;;;;;;16.90;10.32;;;;;;;27.43;46.04;101285.23;1853764;77;20926;-86
2021/09/14 09:34:27;;;;;;;13.72;10.15;;;;;;;27.69;45.69;101292.56;1859350;77;21524;-84
2021/09/14 09:37:07;;;;;;;15.68;10.85;;;;;;;27.72;44.73;101294.33;1858449;77;21266;-82
2021/09/14 09:39:42;;;;;;;16.27;10.00;;;;;;;27.65;44.90;101290.80;1826526;78;20972;-85
2021/09/14 09:42:09;;;;;;;14.23;9.85;;;;;;;27.62;45.26;101288.53;1826576;78;21282;-81
2021/09/14 09:44:39;;;;;;;14.15;9.18;;;;;;;27.58;45.15;101286.44;1826220;78;21084;-84
2021/09/14 09:47:06;;;;;;;16.12;9.48;;;;;;;27.52;45.22;101284.56;1826702;78;21064;-81
2021/09/14 09:49:41;;;;;;;14.28;9.68;;;;;;;27.43;44.29;101280.38;1827996;78;21254;-89
2021/09/14 09:52:08;;;;;;;11.18;8.68;;;;;;;27.57;43.98;101284.28;1826852;78;21040;-82
2021/09/14 09:54:36;;;;;;;11.25;9.05;;;;;;;27.62;42.66;101280.53;1793272;79;21077;-86
2021/09/14 09:57:04;;;;;;;13.38;9.20;;;;;;;27.38;42.80;101285.48;1767873;80;21123;-85
2021/09/14 09:59:32;;;;;;;16.30;9.00;;;;;;;27.19;42.88;101282.98;1793235;80;21086;-78
2021/09/14 10:02:19;;;;;;;12.98;8.63;;;;;;;27.58;42.46;101285.94;1766051;80;21218;-84
2021/09/14 10:04:55;;;;;;;10.88;8.78;;;;;;;28.70;41.33;101279.16;1791470;80;21096;-81
2021/09/14 10:07:25;;;;;;;15.63;8.45;;;;;;;30.54;39.21;101279.98;1792044;80;21038;-83
2021/09/14 10:09:59;;;;;;;;;;;;;;;32.50;35.89;101272.18;1763849;80;21063;-84
2021/09/14 10:12:35;;;;;;;10.03;7.67;;;;;;;33.49;33.00;101265.94;1818164;78;20221;-84
2021/09/14 10:15:07;;;;;;;17.02;8.08;;;;;;;33.87;31.74;101268.90;1792429;80;21072;-82
2021/09/14 10:17:51;;;;;;;10.50;7.47;;;;;;;34.65;31.39;101266.03;1792519;80;21020;-83
2021/09/14 10:20:25;;;;;;;12.82;7.95;;;;;;;35.09;30.06;101263.73;1792505;80;21059;-84
2021/09/14 10:23:09;;;;;;;13.72;7.15;;;;;;;34.15;30.24;101264.06;1791834;80;21064;-80
2021/09/14 10:25:40;;;;;;;13.43;8.70;;;;;;;33.22;31.73;101262.92;1790947;80;21006;-89
2021/09/14 10:28:12;;;;;;;12.55;8.60;;;;;;;32.24;32.41;101269.36;1792696;80;21041;-87
2021/09/14 10:30:41;;;;;;;15.15;8.20;;;;;;;31.27;33.80;101262.80;1791643;80;21060;-86
2021/09/14 10:33:28;;;;;;;11.08;7.92;;;;;;;31.00;34.54;101251.50;1791310;78;21770;-81
2021/09/14 10:35:56;;;;;;;12.55;7.75;;;;;;;31.17;34.88;101246.39;1814175;78;21069;-86
2021/09/14 10:38:25;;;;;;;9.05;8.13;;;;;;;31.46;34.04;101247.00;1824303;78;21061;-82
2021/09/14 10:40:53;;;;;;;11.53;7.83;;;;;;;31.62;34.02;101238.91;1807864;77;21115;-80
2021/09/14 10:43:29;;;;;;;10.32;8.08;;;;;;;31.87;33.56;101243.11;1836090;77;20926;-80
2021/09/14 10:45:57;;;;;;;18.45;8.48;;;;;;;31.69;33.21;101239.61;1839465;77;21081;-82
2021/09/14 10:48:32;;;;;;;14.98;7.80;;;;;;;31.03;33.99;101241.67;1829164;77;21002;-87
2021/09/14 10:51:11;;;;;;;10.68;7.78;;;;;;;30.65;34.93;101247.14;1823902;78;20966;-81
2021/09/14 10:53:39;;;;;;;12.28;8.25;;;;;;;30.32;34.84;101251.88;1823744;78;21214;-83
2021/09/14 10:56:11;;;;;;;18.62;8.75;;;;;;;29.94;35.65;101249.22;1823934;78;20989;-82
2021/09/14 10:58:44;;;;;;;12.07;8.18;;;;;;;29.70;36.36;101248.59;1824297;78;21598;-81
2021/09/14 11:01:22;;;;;;;10.23;7.85;;;;;;;29.46;36.78;101247.94;1827604;77;21017;-83
2021/09/14 11:03:49;;;;;;;9.63;7.90;;;;;;;29.19;36.30;101245.33;1823456;78;21057;-83
2021/09/14 11:06:17;;;;;;;8.85;6.97;;;;;;;28.96;36.19;101248.95;1823588;78;21764;-88
2021/09/14 11:08:46;;;;;;;16.48;8.03;;;;;;;28.72;36.36;101248.22;1823578;78;20930;-85
2021/09/14 11:11:20;;;;;;;11.45;8.43;;;;;;;28.57;37.17;101243.56;1834921;77;20938;-83
2021/09/14 11:13:49;;;;;;;10.63;7.83;;;;;;;28.54;37.52;101241.30;1783421;80;21053;-82
2021/09/14 11:16:20;;;;;;;12.65;8.85;;;;;;;28.54;37.85;101237.30;1784286;80;21024;-81
2021/09/14 11:18:45;;;;;;;12.15;8.05;;;;;;;28.56;38.16;101243.28;1783043;80;21892;-82
2021/09/14 11:21:19;;;;;;;17.00;9.08;;;;;;;28.60;38.70;101246.66;1765206;81;20965;-82
2021/09/14 11:23:48;;;;;;;12.58;9.08;;;;;;;28.79;38.65;101241.86;1765017;79;21122;-83
2021/09/14 11:26:18;;;;;;;16.90;9.75;;;;;;;29.25;38.04;101244.52;1764772;81;20997;-83
2021/09/14 11:28:59;;;;;;;28.40;9.70;;;;;;;29.42;37.68;101237.37;1764760;81;21044;-84
2021/09/14 11:31:30;;;;;;;15.95;9.55;;;;;;;29.25;37.66;101233.82;1764229;81;21118;-83
2021/09/14 11:33:58;;;;;;;13.50;9.63;;;;;;;29.03;38.03;101236.91;1764965;81;21615;-82
2021/09/14 11:36:27;;;;;;;22.90;9.68;;;;;;;28.87;38.34;101235.50;1774664;79;21540;-84
2021/09/14 11:39:00;;;;;;;14.65;9.55;;;;;;;28.74;38.51;101233.66;1776863;79;21076;-83
2021/09/14 11:41:34;;;;;;;12.10;7.67;;;;;;;28.72;38.78;101226.84;1853482;77;21497;-82
2021/09/14 11:44:02;;;;;;;17.30;8.70;;;;;;;28.85;38.11;101218.83;1842134;77;20894;-82
2021/09/14 11:46:30;;;;;;;13.75;9.38;;;;;;;29.01;37.74;101219.73;1837362;77;20875;-83
2021/09/14 11:49:00;;;;;;;20.23;9.73;;;;;;;29.21;37.49;101220.53;1819616;77;21050;-84
2021/09/14 11:51:29;;;;;;;10.18;8.35;;;;;;;29.37;37.35;101227.30;1819117;78;21072;-84
2021/09/14 11:53:58;;;;;;;14.33;9.75;;;;;;;29.48;36.95;101227.17;1818693;78;21058;-83
2021/09/14 11:56:27;;;;;;;13.48;9.48;;;;;;;29.36;36.62;101225.65;1820640;77;21137;-85
2021/09/14 11:58:55;;;;;;;10.85;8.95;;;;;;;29.17;37.19;101225.98;1820167;77;20847;-86
2021/09/14 12:01:31;;;;;;;15.80;8.48;;;;;;;28.99;37.57;101219.14;1818763;78;42066;-85
2021/09/14 12:03:58;;;;;;;14.50;8.03;;;;;;;28.82;37.20;101217.91;1822290;77;21010;-84
2021/09/14 12:06:28;;;;;;;14.35;8.08;;;;;;;28.73;37.21;101216.48;1833537;77;21060;-85
2021/09/14 12:09:08;;;;;;;10.43;7.58;;;;;;;28.78;36.87;101213.49;1865818;76;21275;-83
2021/09/14 12:11:42;;;;;;;10.88;7.42;;;;;;;28.84;36.11;101201.18;1861808;76;21616;-87
2021/09/14 12:14:12;;;;;;;10.45;7.70;;;;;;;28.85;36.04;101202.80;1850709;77;21037;-84
2021/09/14 12:16:42;;;;;;;12.25;7.65;;;;;;;28.81;36.17;101201.59;1850726;77;20926;-83
2021/09/14 12:19:11;;;;;;;14.38;8.03;;;;;;;28.72;36.15;101206.30;1852639;77;21053;-80
2021/09/14 12:21:41;;;;;;;22.17;9.23;;;;;;;28.58;36.07;101201.16;1852978;77;21013;-81